Terminal Aerodrome Forecast
Issued by NWS Mobile, AL

Home | Current Version | Previous Version | Text Only | Print | Product List | Glossary On
Versions: 1 2 3 4 5 6 7 8 9 10 11 12
000
FTUS44 KMOB 212320
TAFPNS
TAF
KPNS 212320Z 2200/2224 13009KT P6SM FEW040 SCT050
     FM220500 12010KT 6SM BR BKN015
     FM220800 12011KT 6SM BR VCSH BKN008
     FM221800 15014G25KT 6SM BR VCTS OVC015CB PROB30 2218/2224
      VRB20G30KT 2SM TSRA BKN012CB=

USA.gov is the U.S. government's official web portal to all federal, state and local government web resources and services.